DAL1573 KMCO-KLGA
Flight info
| Callsign | DAL1573 |
|---|---|
| Flight time | N/A |
| Altitude | 33000 |
| Route | FATHE4 VIYAP Q87 HURTS PROUD2 |
| Aircraft | A321/M-SDE3FGHIRWY/LB1 |
Departure
| Time | 2026-04-20 13:16 |
|---|---|
| Airport | Orlando International Airport (KMCO) |
Arrival
| Time | N/A |
|---|---|
| Airport | LaGuardia Airport (KLGA) |
| Time | Latitude | Longitude | Altitude | Speed | Heading |
|---|---|---|---|---|---|
| 2026-04-20 12:45 | 28.42882 | -81.30088 | 94 ft | 0 kts | 146° |
| 2026-04-20 12:51 | 28.42883 | -81.30088 | 94 ft | 0 kts | 146° |
| 2026-04-20 13:03 | 28.42894 | -81.30096 | 89 ft | 3 kts | 146° |
| 2026-04-20 13:04 | 28.42910 | -81.30108 | 99 ft | 3 kts | 146° |
| 2026-04-20 13:04 | 28.42925 | -81.30121 | 93 ft | 3 kts | 126° |
| 2026-04-20 13:04 | 28.42934 | -81.30141 | 95 ft | 3 kts | 95° |
| 2026-04-20 13:04 | 28.42934 | -81.30161 | 94 ft | 1 kts | 84° |
| 2026-04-20 13:05 | 28.42934 | -81.30162 | 94 ft | 0 kts | 84° |
| 2026-04-20 13:08 | 28.42936 | -81.30155 | 94 ft | 4 kts | 72° |
| 2026-04-20 13:08 | 28.42964 | -81.30105 | 97 ft | 8 kts | 62° |
| 2026-04-20 13:08 | 28.42977 | -81.30046 | 98 ft | 9 kts | 87° |
| 2026-04-20 13:09 | 28.42954 | -81.29957 | 95 ft | 12 kts | 119° |
| 2026-04-20 13:09 | 28.42917 | -81.29881 | 95 ft | 10 kts | 106° |
| 2026-04-20 13:09 | 28.42898 | -81.29807 | 96 ft | 9 kts | 140° |
| 2026-04-20 13:09 | 28.42827 | -81.29799 | 95 ft | 14 kts | 179° |
| 2026-04-20 13:10 | 28.42721 | -81.29798 | 96 ft | 15 kts | 179° |
| 2026-04-20 13:10 | 28.42623 | -81.29797 | 95 ft | 13 kts | 179° |
| 2026-04-20 13:10 | 28.42535 | -81.29796 | 97 ft | 12 kts | 179° |
| 2026-04-20 13:10 | 28.42435 | -81.29794 | 96 ft | 22 kts | 179° |
| 2026-04-20 13:11 | 28.42259 | -81.29793 | 96 ft | 25 kts | 179° |
| 2026-04-20 13:11 | 28.42088 | -81.29791 | 95 ft | 24 kts | 179° |
| 2026-04-20 13:11 | 28.41928 | -81.29790 | 96 ft | 22 kts | 179° |
| 2026-04-20 13:11 | 28.41779 | -81.29788 | 96 ft | 21 kts | 179° |
| 2026-04-20 13:12 | 28.41641 | -81.29786 | 94 ft | 19 kts | 179° |
| 2026-04-20 13:12 | 28.41515 | -81.29785 | 96 ft | 17 kts | 179° |
| 2026-04-20 13:12 | 28.41399 | -81.29784 | 95 ft | 18 kts | 179° |
| 2026-04-20 13:12 | 28.41266 | -81.29783 | 95 ft | 19 kts | 179° |
| 2026-04-20 13:13 | 28.41141 | -81.29782 | 94 ft | 17 kts | 179° |
| 2026-04-20 13:13 | 28.41027 | -81.29780 | 97 ft | 16 kts | 179° |
| 2026-04-20 13:13 | 28.40924 | -81.29779 | 95 ft | 14 kts | 179° |
| 2026-04-20 13:13 | 28.40835 | -81.29764 | 96 ft | 12 kts | 140° |
| 2026-04-20 13:14 | 28.40820 | -81.29677 | 97 ft | 11 kts | 89° |
| 2026-04-20 13:14 | 28.40821 | -81.29588 | 94 ft | 10 kts | 84° |
| 2026-04-20 13:14 | 28.40865 | -81.29559 | 95 ft | 6 kts | 1° |
| 2026-04-20 13:14 | 28.40877 | -81.29559 | 96 ft | 0 kts | 359° |
| 2026-04-20 13:15 | 28.40933 | -81.29560 | 94 ft | 31 kts | 360° |
| 2026-04-20 13:15 | 28.41381 | -81.29564 | 98 ft | 95 kts | 359° |
| 2026-04-20 13:15 | 28.42201 | -81.29573 | 98 ft | 142 kts | 359° |
| 2026-04-20 13:15 | 28.43260 | -81.29601 | 453 ft | 153 kts | 1° |
| 2026-04-20 13:16 | 28.44336 | -81.29614 | 1117 ft | 152 kts | 7° |
| 2026-04-20 13:16 | 28.45337 | -81.29302 | 1646 ft | 150 kts | 32° |
| 2026-04-20 13:16 | 28.46268 | -81.28698 | 2016 ft | 160 kts | 32° |
| 2026-04-20 13:16 | 28.47287 | -81.28036 | 2342 ft | 178 kts | 31° |
| 2026-04-20 13:17 | 28.48419 | -81.27302 | 2616 ft | 197 kts | 32° |
| 2026-04-20 13:17 | 28.49679 | -81.26479 | 2786 ft | 222 kts | 32° |
| 2026-04-20 13:17 | 28.51073 | -81.25595 | 3215 ft | 241 kts | 26° |
| 2026-04-20 13:17 | 28.52775 | -81.25215 | 3895 ft | 253 kts | 6° |
| 2026-04-20 13:18 | 28.54530 | -81.25091 | 4636 ft | 259 kts | 4° |
| 2026-04-20 13:18 | 28.56352 | -81.25076 | 5348 ft | 265 kts | 359° |
| 2026-04-20 13:18 | 28.58210 | -81.25153 | 6105 ft | 268 kts | 354° |
| 2026-04-20 13:18 | 28.60068 | -81.25395 | 6903 ft | 269 kts | 351° |
| 2026-04-20 13:19 | 28.61928 | -81.25704 | 7649 ft | 271 kts | 349° |
| 2026-04-20 13:19 | 28.63808 | -81.26023 | 8368 ft | 275 kts | 350° |
| 2026-04-20 13:19 | 28.65718 | -81.26319 | 9069 ft | 279 kts | 351° |
| 2026-04-20 13:19 | 28.67657 | -81.26599 | 9790 ft | 283 kts | 351° |
| 2026-04-20 13:20 | 28.69627 | -81.26875 | 10371 ft | 292 kts | 351° |
| 2026-04-20 13:20 | 28.71694 | -81.27162 | 10726 ft | 306 kts | 351° |
| 2026-04-20 13:20 | 28.73860 | -81.27461 | 11088 ft | 320 kts | 351° |
| 2026-04-20 13:20 | 28.76120 | -81.27769 | 11457 ft | 334 kts | 351° |
| 2026-04-20 13:21 | 28.78473 | -81.28090 | 11842 ft | 346 kts | 351° |
| 2026-04-20 13:21 | 28.80881 | -81.28417 | 12418 ft | 351 kts | 351° |
| 2026-04-20 13:21 | 28.83318 | -81.28747 | 13053 ft | 355 kts | 351° |
| 2026-04-20 13:21 | 28.85789 | -81.29054 | 13696 ft | 359 kts | 352° |
| 2026-04-20 13:22 | 28.88292 | -81.29291 | 14305 ft | 363 kts | 353° |
| 2026-04-20 13:22 | 28.90823 | -81.29489 | 14883 ft | 366 kts | 353° |
| 2026-04-20 13:22 | 28.93378 | -81.29676 | 15474 ft | 370 kts | 353° |
| 2026-04-20 13:22 | 28.95958 | -81.29869 | 16035 ft | 373 kts | 352° |
| 2026-04-20 13:23 | 28.98561 | -81.30075 | 16601 ft | 376 kts | 352° |
| 2026-04-20 13:23 | 29.01180 | -81.30308 | 17161 ft | 379 kts | 351° |
| 2026-04-20 13:23 | 29.03817 | -81.30587 | 17725 ft | 382 kts | 350° |
| 2026-04-20 13:23 | 29.06469 | -81.30893 | 18278 ft | 385 kts | 349° |
| 2026-04-20 13:24 | 29.09139 | -81.31212 | 18784 ft | 387 kts | 349° |
| 2026-04-20 13:24 | 29.11826 | -81.31520 | 19266 ft | 390 kts | 350° |
| 2026-04-20 13:24 | 29.14542 | -81.31750 | 19741 ft | 393 kts | 351° |
| 2026-04-20 13:24 | 29.17283 | -81.31916 | 20206 ft | 396 kts | 352° |
| 2026-04-20 13:25 | 29.20044 | -81.32051 | 20670 ft | 398 kts | 352° |
| 2026-04-20 13:25 | 29.22821 | -81.32180 | 21138 ft | 401 kts | 352° |
| 2026-04-20 13:25 | 29.25614 | -81.32315 | 21597 ft | 403 kts | 351° |
| 2026-04-20 13:25 | 29.28420 | -81.32466 | 22059 ft | 405 kts | 351° |
| 2026-04-20 13:26 | 29.31241 | -81.32629 | 22504 ft | 407 kts | 351° |
| 2026-04-20 13:26 | 29.34080 | -81.32802 | 22962 ft | 410 kts | 350° |
| 2026-04-20 13:26 | 29.36933 | -81.32981 | 23403 ft | 412 kts | 350° |
| 2026-04-20 13:26 | 29.39803 | -81.33161 | 23826 ft | 415 kts | 350° |
| 2026-04-20 13:27 | 29.42697 | -81.33340 | 24188 ft | 417 kts | 349° |
| 2026-04-20 13:27 | 29.45597 | -81.33515 | 24561 ft | 419 kts | 349° |
| 2026-04-20 13:27 | 29.48512 | -81.33688 | 24934 ft | 420 kts | 349° |
| 2026-04-20 13:27 | 29.51440 | -81.33864 | 25298 ft | 422 kts | 349° |
| 2026-04-20 13:28 | 29.53382 | -81.33981 | 25542 ft | 423 kts | 349° |
| 2026-04-20 13:28 | 29.56364 | -81.34162 | 25913 ft | 424 kts | 349° |
| 2026-04-20 13:28 | 29.59315 | -81.34341 | 26278 ft | 426 kts | 349° |
| 2026-04-20 13:28 | 29.62280 | -81.34520 | 26638 ft | 427 kts | 348° |
| 2026-04-20 13:29 | 29.65248 | -81.34700 | 27001 ft | 428 kts | 348° |
| 2026-04-20 13:29 | 29.68231 | -81.34875 | 27347 ft | 430 kts | 348° |
| 2026-04-20 13:29 | 29.71223 | -81.35044 | 27714 ft | 431 kts | 348° |
| 2026-04-20 13:29 | 29.74183 | -81.35208 | 28058 ft | 432 kts | 348° |
| 2026-04-20 13:30 | 29.77231 | -81.35376 | 28400 ft | 434 kts | 348° |
| 2026-04-20 13:30 | 29.80208 | -81.35542 | 28725 ft | 435 kts | 348° |
| 2026-04-20 13:30 | 29.83235 | -81.35716 | 29056 ft | 436 kts | 348° |
| 2026-04-20 13:30 | 29.86268 | -81.35891 | 29381 ft | 437 kts | 348° |
| 2026-04-20 13:31 | 29.89310 | -81.36065 | 29700 ft | 439 kts | 348° |
| 2026-04-20 13:31 | 29.92363 | -81.36239 | 30019 ft | 440 kts | 348° |
| 2026-04-20 13:31 | 29.95422 | -81.36419 | 30356 ft | 440 kts | 348° |
| 2026-04-20 13:31 | 29.98469 | -81.36599 | 30736 ft | 438 kts | 348° |
| 2026-04-20 13:32 | 30.01505 | -81.36773 | 31110 ft | 436 kts | 348° |
| 2026-04-20 13:32 | 30.04529 | -81.36944 | 31479 ft | 434 kts | 348° |
| 2026-04-20 13:32 | 30.07538 | -81.37114 | 31858 ft | 432 kts | 347° |
| 2026-04-20 13:32 | 30.10539 | -81.37284 | 32234 ft | 431 kts | 347° |
| 2026-04-20 13:33 | 30.13527 | -81.37454 | 32605 ft | 429 kts | 347° |
| 2026-04-20 13:33 | 30.16507 | -81.37624 | 32981 ft | 428 kts | 347° |
| 2026-04-20 13:33 | 30.19479 | -81.37798 | 33231 ft | 427 kts | 347° |
| 2026-04-20 13:34 | 30.25331 | -81.38130 | 33288 ft | 416 kts | 347° |
| 2026-04-20 13:34 | 30.31099 | -81.38475 | 33288 ft | 414 kts | 347° |
| 2026-04-20 13:35 | 30.36854 | -81.38814 | 33285 ft | 414 kts | 347° |
| 2026-04-20 13:35 | 30.42605 | -81.39149 | 33283 ft | 414 kts | 347° |
| 2026-04-20 13:36 | 30.48353 | -81.39482 | 33293 ft | 413 kts | 347° |
| 2026-04-20 13:36 | 30.54101 | -81.39787 | 33318 ft | 414 kts | 347° |
| 2026-04-20 13:37 | 30.59852 | -81.40080 | 33325 ft | 413 kts | 347° |
| 2026-04-20 13:37 | 30.65593 | -81.40381 | 33329 ft | 413 kts | 346° |
| 2026-04-20 13:38 | 30.71331 | -81.40685 | 33334 ft | 413 kts | 346° |
| 2026-04-20 13:38 | 30.77063 | -81.40985 | 33334 ft | 412 kts | 346° |
| 2026-04-20 13:39 | 30.82787 | -81.41289 | 33325 ft | 412 kts | 346° |
| 2026-04-20 13:39 | 30.88505 | -81.41598 | 33315 ft | 411 kts | 346° |
| 2026-04-20 13:40 | 30.94218 | -81.41906 | 33318 ft | 411 kts | 346° |
| 2026-04-20 13:40 | 30.99926 | -81.42208 | 33321 ft | 410 kts | 346° |
| 2026-04-20 13:41 | 31.05627 | -81.42509 | 33324 ft | 410 kts | 346° |
| 2026-04-20 13:41 | 31.11321 | -81.42814 | 33324 ft | 409 kts | 346° |
| 2026-04-20 13:42 | 31.17003 | -81.43120 | 33325 ft | 409 kts | 346° |
| 2026-04-20 13:42 | 31.25599 | -81.42963 | 33353 ft | 430 kts | 1° |
| 2026-04-20 13:43 | 31.28495 | -81.41834 | 33356 ft | 449 kts | 12° |
| 2026-04-20 13:43 | 31.31334 | -81.40288 | 33364 ft | 450 kts | 13° |
| 2026-04-20 13:43 | 31.37009 | -81.37184 | 33355 ft | 450 kts | 13° |
| 2026-04-20 13:44 | 31.42688 | -81.34093 | 33353 ft | 450 kts | 12° |
| 2026-04-20 13:44 | 31.48368 | -81.31006 | 33346 ft | 450 kts | 12° |
| 2026-04-20 13:45 | 31.54045 | -81.27929 | 33345 ft | 450 kts | 12° |
| 2026-04-20 13:45 | 31.59683 | -81.24860 | 33332 ft | 450 kts | 12° |
| 2026-04-20 13:46 | 31.65394 | -81.21739 | 33328 ft | 450 kts | 12° |
| 2026-04-20 13:46 | 31.71064 | -81.18647 | 33321 ft | 450 kts | 12° |
| 2026-04-20 13:47 | 31.76737 | -81.15549 | 33319 ft | 450 kts | 12° |
| 2026-04-20 13:47 | 31.82411 | -81.12444 | 33320 ft | 450 kts | 13° |
| 2026-04-20 13:48 | 31.88044 | -81.09355 | 33316 ft | 450 kts | 13° |
| 2026-04-20 13:48 | 31.93714 | -81.06239 | 33317 ft | 450 kts | 13° |
| 2026-04-20 13:49 | 31.99388 | -81.03113 | 33315 ft | 450 kts | 13° |
| 2026-04-20 13:49 | 32.05061 | -80.99963 | 33314 ft | 451 kts | 13° |
| 2026-04-20 13:50 | 32.10731 | -80.96785 | 33317 ft | 452 kts | 13° |
| 2026-04-20 13:50 | 32.16409 | -80.93600 | 33340 ft | 452 kts | 13° |
| 2026-04-20 13:51 | 32.22090 | -80.90422 | 33342 ft | 452 kts | 13° |
| 2026-04-20 13:51 | 32.27778 | -80.87226 | 33340 ft | 453 kts | 13° |
| 2026-04-20 13:52 | 32.33464 | -80.84020 | 33340 ft | 453 kts | 13° |
| 2026-04-20 13:52 | 32.39157 | -80.80813 | 33352 ft | 454 kts | 13° |
| 2026-04-20 13:53 | 32.44860 | -80.77596 | 33352 ft | 454 kts | 13° |
| 2026-04-20 13:53 | 32.50565 | -80.74371 | 33355 ft | 455 kts | 13° |
| 2026-04-20 13:54 | 32.56273 | -80.71141 | 33354 ft | 455 kts | 13° |
| 2026-04-20 13:54 | 32.61992 | -80.67909 | 33350 ft | 455 kts | 13° |
| 2026-04-20 13:55 | 32.67714 | -80.64667 | 33346 ft | 456 kts | 14° |
| 2026-04-20 13:55 | 32.73400 | -80.61413 | 33358 ft | 458 kts | 14° |
| 2026-04-20 13:56 | 32.79147 | -80.58009 | 33364 ft | 459 kts | 15° |
| 2026-04-20 13:56 | 32.84855 | -80.54578 | 33365 ft | 460 kts | 15° |
| 2026-04-20 13:57 | 32.90533 | -80.51192 | 33374 ft | 460 kts | 15° |
| 2026-04-20 13:57 | 32.96266 | -80.47780 | 33370 ft | 461 kts | 15° |
| 2026-04-20 13:58 | 33.02003 | -80.44357 | 33329 ft | 461 kts | 15° |
| 2026-04-20 13:58 | 33.07748 | -80.40929 | 33330 ft | 462 kts | 15° |
| 2026-04-20 13:59 | 33.13500 | -80.37491 | 33325 ft | 463 kts | 15° |
| 2026-04-20 13:59 | 33.19255 | -80.34037 | 33333 ft | 463 kts | 15° |
| 2026-04-20 14:00 | 33.25017 | -80.30569 | 33336 ft | 464 kts | 15° |
| 2026-04-20 14:00 | 33.30782 | -80.27097 | 33344 ft | 464 kts | 15° |
| 2026-04-20 14:01 | 33.36557 | -80.23633 | 33348 ft | 465 kts | 15° |
| 2026-04-20 14:01 | 33.42286 | -80.19983 | 33344 ft | 472 kts | 20° |
| 2026-04-20 14:02 | 33.47859 | -80.15765 | 33349 ft | 475 kts | 22° |
| 2026-04-20 14:02 | 33.53402 | -80.11427 | 33345 ft | 476 kts | 22° |
| 2026-04-20 14:03 | 33.58949 | -80.07083 | 33342 ft | 476 kts | 22° |
| 2026-04-20 14:03 | 33.64512 | -80.02778 | 33341 ft | 476 kts | 22° |
| 2026-04-20 14:04 | 33.70100 | -79.98512 | 33348 ft | 476 kts | 21° |
| 2026-04-20 14:04 | 33.75696 | -79.94269 | 33342 ft | 476 kts | 21° |
| 2026-04-20 14:05 | 33.81290 | -79.89995 | 33347 ft | 476 kts | 21° |
| 2026-04-20 14:05 | 33.86877 | -79.85706 | 33354 ft | 477 kts | 21° |
| 2026-04-20 14:06 | 33.92471 | -79.81408 | 33349 ft | 477 kts | 21° |
| 2026-04-20 14:06 | 33.98064 | -79.77103 | 33343 ft | 477 kts | 21° |
| 2026-04-20 14:07 | 34.03656 | -79.72783 | 33340 ft | 478 kts | 21° |
| 2026-04-20 14:07 | 34.09253 | -79.68465 | 33337 ft | 478 kts | 21° |
| 2026-04-20 14:08 | 34.14858 | -79.64143 | 33342 ft | 478 kts | 21° |
| 2026-04-20 14:08 | 34.20458 | -79.59808 | 33343 ft | 478 kts | 21° |
| 2026-04-20 14:09 | 34.26061 | -79.55461 | 33341 ft | 479 kts | 21° |
| 2026-04-20 14:09 | 34.31669 | -79.51100 | 33342 ft | 479 kts | 21° |
| 2026-04-20 14:10 | 34.37277 | -79.46730 | 33341 ft | 479 kts | 21° |
| 2026-04-20 14:10 | 34.42886 | -79.42356 | 33324 ft | 480 kts | 21° |
| 2026-04-20 14:11 | 34.48495 | -79.37973 | 33325 ft | 480 kts | 21° |
| 2026-04-20 14:11 | 34.54110 | -79.33580 | 33324 ft | 480 kts | 21° |
| 2026-04-20 14:12 | 34.59726 | -79.29186 | 33325 ft | 481 kts | 21° |
| 2026-04-20 14:12 | 34.65304 | -79.24810 | 33323 ft | 481 kts | 21° |
| 2026-04-20 14:13 | 34.70923 | -79.20394 | 33326 ft | 481 kts | 22° |
| 2026-04-20 14:13 | 34.75627 | -79.16689 | 33331 ft | 481 kts | 22° |
| 2026-04-20 14:14 | 34.81246 | -79.12262 | 33323 ft | 481 kts | 22° |
| 2026-04-20 14:14 | 34.86868 | -79.07822 | 33321 ft | 482 kts | 22° |
| 2026-04-20 14:15 | 34.92495 | -79.03375 | 33313 ft | 482 kts | 22° |
| 2026-04-20 14:15 | 34.98130 | -78.98912 | 33319 ft | 483 kts | 22° |
| 2026-04-20 14:16 | 35.03768 | -78.94441 | 33324 ft | 484 kts | 22° |
| 2026-04-20 14:16 | 35.09415 | -78.89958 | 33313 ft | 484 kts | 22° |
| 2026-04-20 14:17 | 35.15056 | -78.85460 | 33311 ft | 484 kts | 22° |
| 2026-04-20 14:17 | 35.20697 | -78.80949 | 33314 ft | 485 kts | 22° |
| 2026-04-20 14:18 | 35.26344 | -78.76439 | 33331 ft | 485 kts | 23° |
| 2026-04-20 14:18 | 35.31989 | -78.71931 | 33332 ft | 485 kts | 23° |
| 2026-04-20 14:19 | 35.37636 | -78.67413 | 33335 ft | 485 kts | 23° |
| 2026-04-20 14:19 | 35.43278 | -78.62880 | 33330 ft | 485 kts | 23° |
| 2026-04-20 14:20 | 35.48918 | -78.58334 | 33326 ft | 485 kts | 23° |
| 2026-04-20 14:20 | 35.54559 | -78.53785 | 33319 ft | 485 kts | 23° |
| 2026-04-20 14:21 | 35.60204 | -78.49236 | 33327 ft | 485 kts | 24° |
| 2026-04-20 14:21 | 35.65844 | -78.44686 | 33334 ft | 485 kts | 24° |
| 2026-04-20 14:22 | 35.71480 | -78.40120 | 33330 ft | 485 kts | 24° |
| 2026-04-20 14:22 | 35.77103 | -78.35544 | 33324 ft | 484 kts | 24° |
| 2026-04-20 14:23 | 35.82726 | -78.30973 | 33323 ft | 484 kts | 24° |
| 2026-04-20 14:23 | 35.88344 | -78.26404 | 33323 ft | 483 kts | 24° |
| 2026-04-20 14:24 | 35.93952 | -78.21833 | 33325 ft | 483 kts | 24° |
| 2026-04-20 14:24 | 35.99553 | -78.17253 | 33330 ft | 483 kts | 24° |
| 2026-04-20 14:25 | 36.05153 | -78.12669 | 33332 ft | 483 kts | 24° |
| 2026-04-20 14:25 | 36.10755 | -78.08088 | 33332 ft | 482 kts | 24° |
| 2026-04-20 14:26 | 36.16308 | -78.03535 | 33329 ft | 482 kts | 25° |
| 2026-04-20 14:26 | 36.21886 | -77.98944 | 33323 ft | 481 kts | 25° |
| 2026-04-20 14:27 | 36.27496 | -77.94320 | 33317 ft | 481 kts | 25° |
| 2026-04-20 14:27 | 36.33022 | -77.89757 | 33309 ft | 480 kts | 25° |
| 2026-04-20 14:28 | 36.38582 | -77.85150 | 33310 ft | 480 kts | 25° |
| 2026-04-20 14:28 | 36.44142 | -77.80548 | 33314 ft | 480 kts | 25° |
| 2026-04-20 14:29 | 36.49773 | -77.76031 | 33311 ft | 478 kts | 23° |
| 2026-04-20 14:29 | 36.55426 | -77.71707 | 33302 ft | 477 kts | 22° |
| 2026-04-20 14:30 | 36.61037 | -77.67409 | 33295 ft | 477 kts | 23° |
| 2026-04-20 14:30 | 36.66668 | -77.63031 | 33296 ft | 477 kts | 23° |
| 2026-04-20 14:31 | 36.72291 | -77.58630 | 33293 ft | 477 kts | 24° |
| 2026-04-20 14:31 | 36.77921 | -77.54224 | 33291 ft | 478 kts | 24° |
| 2026-04-20 14:32 | 36.83551 | -77.49819 | 33284 ft | 478 kts | 24° |
| 2026-04-20 14:32 | 36.89177 | -77.45408 | 33280 ft | 478 kts | 24° |
| 2026-04-20 14:33 | 36.94809 | -77.40985 | 33274 ft | 478 kts | 24° |
| 2026-04-20 14:33 | 37.00440 | -77.36558 | 33277 ft | 478 kts | 24° |
| 2026-04-20 14:34 | 37.06110 | -77.32098 | 33278 ft | 478 kts | 24° |
| 2026-04-20 14:34 | 37.11735 | -77.27654 | 33276 ft | 478 kts | 24° |
| 2026-04-20 14:35 | 37.17324 | -77.23230 | 33286 ft | 478 kts | 24° |
| 2026-04-20 14:35 | 37.22947 | -77.18778 | 33281 ft | 478 kts | 24° |
| 2026-04-20 14:36 | 37.28570 | -77.14316 | 33273 ft | 478 kts | 24° |
| 2026-04-20 14:36 | 37.34194 | -77.09841 | 33278 ft | 478 kts | 24° |
| 2026-04-20 14:37 | 37.39812 | -77.05353 | 33279 ft | 478 kts | 24° |
| 2026-04-20 14:37 | 37.45426 | -77.00871 | 33284 ft | 477 kts | 24° |
| 2026-04-20 14:38 | 37.51035 | -76.96400 | 33294 ft | 477 kts | 24° |
| 2026-04-20 14:38 | 37.56637 | -76.91914 | 33292 ft | 477 kts | 24° |
| 2026-04-20 14:39 | 37.62232 | -76.87419 | 33281 ft | 477 kts | 24° |
| 2026-04-20 14:39 | 37.67821 | -76.82913 | 33283 ft | 477 kts | 24° |
| 2026-04-20 14:40 | 37.73411 | -76.78415 | 33275 ft | 476 kts | 24° |
| 2026-04-20 14:40 | 37.79002 | -76.73925 | 33270 ft | 476 kts | 24° |
| 2026-04-20 14:41 | 37.84578 | -76.69408 | 33266 ft | 476 kts | 25° |
| 2026-04-20 14:41 | 37.90154 | -76.64876 | 33258 ft | 476 kts | 25° |
| 2026-04-20 14:42 | 37.95728 | -76.60358 | 33249 ft | 476 kts | 24° |
| 2026-04-20 14:42 | 38.01305 | -76.55838 | 33236 ft | 476 kts | 25° |
| 2026-04-20 14:43 | 38.06876 | -76.51291 | 33233 ft | 476 kts | 25° |
| 2026-04-20 14:43 | 38.12452 | -76.46745 | 33230 ft | 477 kts | 25° |
| 2026-04-20 14:44 | 38.18039 | -76.42176 | 33228 ft | 478 kts | 25° |
| 2026-04-20 14:44 | 38.23632 | -76.37598 | 33231 ft | 479 kts | 25° |
| 2026-04-20 14:45 | 38.29238 | -76.33006 | 33227 ft | 479 kts | 25° |
| 2026-04-20 14:45 | 38.34845 | -76.28393 | 33219 ft | 480 kts | 25° |
| 2026-04-20 14:46 | 38.40475 | -76.23757 | 32792 ft | 483 kts | 25° |
| 2026-04-20 14:46 | 38.43306 | -76.21426 | 32466 ft | 485 kts | 24° |
| 2026-04-20 14:46 | 38.46149 | -76.19087 | 32137 ft | 488 kts | 24° |
| 2026-04-20 14:47 | 38.49006 | -76.16734 | 31816 ft | 490 kts | 24° |
| 2026-04-20 14:47 | 38.51874 | -76.14361 | 31495 ft | 493 kts | 24° |
| 2026-04-20 14:47 | 38.54750 | -76.11977 | 31176 ft | 493 kts | 24° |
| 2026-04-20 14:48 | 38.60504 | -76.07196 | 30554 ft | 493 kts | 24° |
| 2026-04-20 14:48 | 38.63376 | -76.04807 | 30235 ft | 493 kts | 23° |
| 2026-04-20 14:48 | 38.66248 | -76.02416 | 29868 ft | 492 kts | 23° |
| 2026-04-20 14:48 | 38.69111 | -76.00031 | 29509 ft | 489 kts | 23° |
| 2026-04-20 14:49 | 38.71953 | -75.97665 | 29146 ft | 486 kts | 23° |
| 2026-04-20 14:49 | 38.74777 | -75.95312 | 28788 ft | 483 kts | 23° |
| 2026-04-20 14:49 | 38.77582 | -75.92971 | 28435 ft | 480 kts | 23° |
| 2026-04-20 14:49 | 38.80368 | -75.90643 | 28086 ft | 476 kts | 23° |
| 2026-04-20 14:50 | 38.83134 | -75.88331 | 27742 ft | 473 kts | 23° |
| 2026-04-20 14:50 | 38.85885 | -75.86029 | 27399 ft | 470 kts | 23° |
| 2026-04-20 14:50 | 38.88616 | -75.83741 | 27206 ft | 467 kts | 23° |
| 2026-04-20 14:50 | 38.91336 | -75.81461 | 27265 ft | 467 kts | 23° |
| 2026-04-20 14:51 | 38.94051 | -75.79184 | 27248 ft | 468 kts | 24° |
| 2026-04-20 14:51 | 38.96752 | -75.76834 | 27008 ft | 468 kts | 25° |
| 2026-04-20 14:51 | 38.99402 | -75.74390 | 26786 ft | 469 kts | 27° |
| 2026-04-20 14:51 | 39.02016 | -75.71889 | 26550 ft | 468 kts | 28° |
| 2026-04-20 14:52 | 39.04609 | -75.69366 | 26316 ft | 466 kts | 28° |
| 2026-04-20 14:52 | 39.07186 | -75.66851 | 26073 ft | 464 kts | 28° |
| 2026-04-20 14:52 | 39.09758 | -75.64354 | 25855 ft | 462 kts | 28° |
| 2026-04-20 14:52 | 39.12322 | -75.61884 | 25618 ft | 459 kts | 28° |
| 2026-04-20 14:53 | 39.14881 | -75.59444 | 25385 ft | 456 kts | 27° |
| 2026-04-20 14:53 | 39.17432 | -75.57027 | 25162 ft | 454 kts | 28° |
| 2026-04-20 14:53 | 39.19969 | -75.54625 | 24939 ft | 452 kts | 28° |
| 2026-04-20 14:53 | 39.22495 | -75.52232 | 24702 ft | 449 kts | 28° |